createdAt,value
2022-09-17T00:00:51.808Z,98.50
2022-09-17T00:03:18.972Z,98.50
2022-09-17T00:05:45.773Z,98.50
2022-09-17T00:08:15.012Z,98.50
2022-09-17T00:10:44.269Z,98.50
2022-09-17T00:13:11.216Z,98.50
2022-09-17T00:15:44.020Z,98.50
2022-09-17T00:18:11.285Z,98.50
2022-09-17T00:20:40.041Z,98.50
2022-09-17T00:23:08.102Z,98.50
2022-09-17T00:25:38.101Z,98.50
2022-09-17T00:28:04.900Z,98.50
2022-09-17T00:30:31.786Z,98.50
2022-09-17T00:32:58.538Z,98.50
2022-09-17T00:35:25.967Z,98.50
2022-09-17T00:37:52.827Z,98.50
2022-09-17T00:40:20.979Z,98.50
2022-09-17T00:42:48.089Z,98.50
2022-09-17T00:45:15.328Z,98.50
2022-09-17T00:47:58.204Z,98.50
2022-09-17T00:50:40.675Z,98.50
2022-09-17T00:53:14.408Z,98.50
2022-09-17T00:55:46.018Z,98.50
2022-09-17T00:58:15.410Z,98.50
2022-09-17T01:00:42.251Z,98.50
2022-09-17T01:03:09.379Z,98.50
2022-09-17T01:06:05.733Z,98.50
2022-09-17T01:08:44.658Z,98.50
2022-09-17T01:11:35.890Z,98.50
2022-09-17T01:14:30.741Z,98.50
2022-09-17T01:17:08.840Z,98.50
2022-09-17T01:19:44.442Z,98.50
2022-09-17T01:22:23.127Z,98.50
2022-09-17T01:25:24.994Z,98.50
2022-09-17T01:28:21.021Z,98.50
2022-09-17T01:31:05.803Z,98.50
2022-09-17T01:33:41.346Z,98.50
2022-09-17T01:36:41.796Z,98.50
2022-09-17T01:39:34.304Z,98.50
2022-09-17T01:42:15.452Z,98.50
2022-09-17T01:44:52.682Z,98.50
2022-09-17T01:47:39.513Z,98.50
2022-09-17T01:50:26.856Z,98.50
2022-09-17T01:52:56.534Z,98.50
2022-09-17T01:55:29.746Z,98.50
2022-09-17T01:57:59.079Z,98.50
2022-09-17T02:00:25.874Z,98.50
2022-09-17T02:03:02.826Z,98.50
2022-09-17T02:05:48.686Z,98.50
2022-09-17T02:08:23.020Z,98.50
2022-09-17T02:10:57.605Z,98.50
2022-09-17T02:13:42.597Z,98.50
2022-09-17T02:16:25.185Z,98.50
2022-09-17T02:19:17.251Z,98.50
2022-09-17T02:22:02.469Z,98.50
2022-09-17T02:24:44.134Z,98.50
2022-09-17T02:27:24.610Z,98.50
2022-09-17T02:29:52.082Z,98.50
2022-09-17T02:32:18.725Z,98.50
2022-09-17T02:34:46.115Z,98.50
2022-09-17T02:37:12.774Z,98.50
2022-09-17T02:39:39.587Z,98.50
2022-09-17T02:42:25.760Z,98.50
2022-09-17T02:45:59.979Z,98.50
2022-09-17T02:48:46.851Z,98.50
2022-09-17T02:51:27.751Z,98.50
2022-09-17T02:54:13.147Z,98.50
2022-09-17T02:56:52.057Z,98.50
2022-09-17T02:59:24.895Z,98.50
2022-09-17T03:02:17.813Z,98.50
2022-09-17T03:04:46.953Z,98.50
2022-09-17T03:07:14.477Z,98.50
2022-09-17T03:09:43.446Z,98.50
2022-09-17T03:12:13.990Z,98.50
2022-09-17T03:14:40.693Z,98.50
2022-09-17T03:17:07.849Z,98.50
2022-09-17T03:19:34.509Z,98.50
2022-09-17T03:22:01.170Z,98.50
2022-09-17T03:24:27.849Z,98.50
2022-09-17T03:26:55.205Z,98.50
2022-09-17T03:29:22.025Z,98.50
2022-09-17T03:31:48.803Z,98.50
2022-09-17T03:34:15.484Z,98.50
2022-09-17T03:36:42.221Z,98.50
2022-09-17T03:39:08.965Z,98.50
2022-09-17T03:41:35.648Z,98.50
2022-09-17T03:44:02.761Z,98.50
2022-09-17T03:46:29.511Z,98.50
2022-09-17T03:48:56.417Z,98.50
2022-09-17T03:51:23.089Z,98.50
2022-09-17T03:53:49.882Z,98.50
2022-09-17T03:56:17.832Z,98.50
2022-09-17T03:58:44.650Z,98.50
2022-09-17T04:01:11.487Z,98.50
2022-09-17T04:03:39.145Z,98.50
2022-09-17T04:06:06.025Z,98.50
2022-09-17T04:08:32.768Z,98.50
2022-09-17T04:10:59.529Z,98.50
2022-09-17T04:13:26.317Z,98.50
2022-09-17T04:15:53.066Z,98.50
2022-09-17T04:18:19.808Z,98.50
2022-09-17T04:20:46.465Z,98.50
2022-09-17T04:23:13.641Z,98.50
2022-09-17T04:25:40.403Z,98.50
2022-09-17T04:28:07.085Z,98.50
2022-09-17T04:30:33.803Z,98.50
2022-09-17T04:33:00.633Z,98.50
2022-09-17T04:35:27.501Z,98.50
2022-09-17T04:37:55.685Z,98.50
2022-09-17T04:40:23.895Z,98.50
2022-09-17T04:42:55.460Z,98.50
2022-09-17T04:45:23.177Z,98.50
2022-09-17T04:47:52.672Z,98.50
2022-09-17T04:50:20.173Z,98.50
2022-09-17T04:52:47.385Z,98.50
2022-09-17T04:55:15.329Z,98.50
2022-09-17T04:57:52.986Z,98.50
2022-09-17T05:00:22.124Z,98.50
2022-09-17T05:02:51.963Z,98.50
2022-09-17T05:05:19.083Z,98.50
2022-09-17T05:07:46.264Z,98.50
2022-09-17T05:10:15.091Z,98.50
2022-09-17T05:12:41.788Z,98.50
2022-09-17T05:15:08.618Z,98.50
2022-09-17T05:17:35.417Z,98.50
2022-09-17T05:20:02.320Z,98.50
2022-09-17T05:22:29.097Z,98.50
2022-09-17T05:24:55.796Z,98.50
2022-09-17T05:27:22.658Z,98.50
2022-09-17T05:29:49.361Z,98.50
2022-09-17T05:32:16.516Z,98.50
2022-09-17T05:34:43.334Z,98.50
2022-09-17T05:37:13.960Z,98.50
2022-09-17T05:39:40.721Z,98.50
2022-09-17T05:42:07.509Z,98.50
2022-09-17T05:44:34.149Z,98.50
2022-09-17T05:47:00.933Z,98.50
2022-09-17T05:49:27.683Z,98.50
2022-09-17T05:51:54.447Z,98.50
2022-09-17T05:54:21.099Z,98.50
2022-09-17T05:56:47.766Z,98.50
2022-09-17T05:59:15.530Z,98.50
2022-09-17T06:01:42.544Z,98.50
2022-09-17T06:04:09.797Z,98.50
2022-09-17T06:06:37.815Z,98.50
2022-09-17T06:09:05.934Z,98.50
2022-09-17T06:11:32.967Z,98.50
2022-09-17T06:14:00.194Z,98.50
2022-09-17T06:16:27.163Z,98.50
2022-09-17T06:18:58.722Z,98.50
2022-09-17T06:21:25.417Z,98.50
2022-09-17T06:23:52.777Z,98.50
2022-09-17T06:26:19.801Z,98.50
2022-09-17T06:28:46.590Z,98.50
2022-09-17T06:31:13.623Z,98.50
2022-09-17T06:33:41.241Z,98.50
2022-09-17T06:36:13.693Z,98.50
2022-09-17T06:38:41.585Z,98.50
2022-09-17T06:41:08.673Z,98.50
2022-09-17T06:43:35.423Z,98.50
2022-09-17T06:46:05.977Z,98.50
2022-09-17T06:48:35.109Z,98.50
2022-09-17T06:51:04.387Z,98.50
2022-09-17T06:53:32.049Z,98.50
2022-09-17T06:56:05.157Z,98.50
2022-09-17T06:58:33.929Z,98.50
2022-09-17T07:01:01.690Z,98.50
2022-09-17T07:03:29.689Z,98.50
2022-09-17T07:05:57.288Z,98.50
2022-09-17T07:08:24.356Z,98.50
2022-09-17T07:10:51.074Z,98.50
2022-09-17T07:13:18.049Z,98.50
2022-09-17T07:15:55.878Z,98.50
2022-09-17T07:18:23.417Z,98.50
2022-09-17T07:21:01.316Z,98.50
2022-09-17T07:23:30.874Z,98.50
2022-09-17T07:26:00.047Z,98.50
2022-09-17T07:28:28.745Z,98.50
2022-09-17T07:30:56.368Z,98.50
2022-09-17T07:33:26.116Z,98.50
2022-09-17T07:35:58.324Z,98.50
2022-09-17T07:38:25.596Z,98.50
2022-09-17T07:40:57.969Z,98.50
2022-09-17T07:43:26.362Z,98.50
2022-09-17T07:45:53.566Z,98.50
2022-09-17T07:48:21.190Z,98.50
2022-09-17T07:50:48.333Z,98.50
2022-09-17T07:53:15.480Z,98.50
2022-09-17T07:55:42.613Z,98.50
2022-09-17T07:58:09.579Z,98.50
2022-09-17T08:00:36.647Z,98.50
2022-09-17T08:03:03.510Z,98.50
2022-09-17T08:05:32.625Z,98.50
2022-09-17T08:07:59.364Z,98.50
2022-09-17T08:10:27.138Z,98.50
2022-09-17T08:12:58.364Z,98.50
2022-09-17T08:15:26.009Z,98.50
2022-09-17T08:17:53.270Z,98.50
2022-09-17T08:20:20.391Z,98.50
2022-09-17T08:22:50.197Z,98.50
2022-09-17T08:25:17.290Z,98.50
2022-09-17T08:27:44.229Z,98.50
2022-09-17T08:30:11.219Z,98.50
2022-09-17T08:32:38.317Z,98.50
2022-09-17T08:35:05.280Z,98.50
2022-09-17T08:37:31.987Z,98.50
2022-09-17T08:39:58.767Z,98.50
2022-09-17T08:42:51.521Z,98.50
2022-09-17T08:45:19.313Z,98.50
2022-09-17T08:47:48.203Z,97.60
2022-09-17T08:50:27.771Z,98.10
2022-09-17T08:53:17.808Z,98.50
2022-09-17T08:56:00.138Z,98.50
2022-09-17T08:58:40.375Z,98.50
2022-09-17T09:01:14.406Z,98.50
2022-09-17T09:04:03.877Z,98.50
2022-09-17T09:06:37.787Z,98.50
2022-09-17T09:09:15.408Z,98.50
2022-09-17T09:11:44.067Z,98.50
2022-09-17T09:14:18.376Z,98.50
2022-09-17T09:16:45.902Z,98.50
2022-09-17T09:19:21.446Z,98.50
2022-09-17T09:22:26.706Z,98.50
2022-09-17T09:25:23.398Z,98.50
2022-09-17T09:28:21.068Z,98.50
2022-09-17T09:31:18.495Z,98.50
2022-09-17T09:33:48.067Z,98.50
2022-09-17T09:36:21.554Z,98.50
2022-09-17T09:39:04.262Z,98.50
2022-09-17T09:41:43.848Z,98.50
2022-09-17T09:44:15.766Z,98.50
2022-09-17T09:47:04.856Z,98.50
2022-09-17T09:49:53.577Z,98.50
2022-09-17T09:52:41.079Z,98.50
2022-09-17T09:55:35.501Z,98.50
2022-09-17T09:58:12.457Z,98.50
2022-09-17T10:00:42.505Z,98.50
2022-09-17T10:03:18.738Z,98.50
2022-09-17T10:06:03.195Z,98.50
2022-09-17T10:08:37.145Z,98.50
2022-09-17T10:11:25.841Z,98.50
2022-09-17T10:14:24.757Z,98.50
2022-09-17T10:17:21.569Z,98.50
2022-09-17T10:20:13.616Z,98.50
2022-09-17T10:22:46.172Z,98.50
2022-09-17T10:25:32.321Z,98.50
2022-09-17T10:28:01.910Z,98.50
2022-09-17T10:30:29.069Z,98.50
2022-09-17T10:33:23.445Z,98.50
2022-09-17T10:36:01.881Z,98.50
2022-09-17T10:38:38.307Z,98.50
2022-09-17T10:41:24.780Z,98.50
2022-09-17T10:43:52.198Z,98.50
2022-09-17T10:46:28.883Z,98.50
2022-09-17T10:49:35.227Z,98.50
2022-09-17T10:52:13.702Z,98.50
2022-09-17T10:55:10.322Z,98.50
2022-09-17T10:58:24.568Z,98.50
2022-09-17T11:01:16.133Z,98.50
2022-09-17T11:04:01.372Z,98.50
2022-09-17T11:06:52.815Z,98.50
2022-09-17T11:09:27.399Z,98.50
2022-09-17T11:12:16.159Z,98.50
2022-09-17T11:15:06.361Z,98.50
2022-09-17T11:17:46.722Z,98.50
2022-09-17T11:20:47.195Z,98.50
2022-09-17T11:23:32.041Z,98.50
2022-09-17T11:26:20.266Z,98.50
2022-09-17T11:28:49.880Z,98.50
2022-09-17T11:31:47.557Z,98.50
2022-09-17T11:34:32.953Z,98.50
2022-09-17T11:37:24.001Z,98.50
2022-09-17T11:39:58.911Z,98.50
2022-09-17T11:42:31.961Z,98.50
2022-09-17T11:45:02.457Z,98.50
2022-09-17T11:47:36.033Z,98.50
2022-09-17T11:50:23.936Z,98.50
2022-09-17T11:53:38.041Z,98.50
2022-09-17T11:56:38.604Z,98.50
2022-09-17T11:59:14.681Z,98.50
2022-09-17T12:01:51.454Z,98.50
2022-09-17T12:04:37.756Z,98.50
2022-09-17T12:07:42.642Z,98.50
2022-09-17T12:10:36.538Z,98.50
2022-09-17T12:13:14.454Z,98.50
2022-09-17T12:15:51.052Z,98.50
2022-09-17T12:18:32.877Z,98.50
2022-09-17T12:21:05.098Z,98.50
2022-09-17T12:23:38.821Z,98.50
2022-09-17T12:26:17.756Z,98.50
2022-09-17T12:29:04.931Z,98.50
2022-09-17T12:31:49.087Z,98.50
2022-09-17T12:34:43.349Z,98.50
2022-09-17T12:37:23.647Z,98.50
2022-09-17T12:39:56.197Z,98.50
2022-09-17T12:42:42.837Z,98.50
2022-09-17T12:45:27.989Z,98.50
2022-09-17T12:48:12.661Z,98.50
2022-09-17T12:51:19.699Z,98.50
2022-09-17T12:54:10.769Z,98.50
2022-09-17T12:57:04.674Z,98.50
2022-09-17T12:59:33.940Z,98.50
2022-09-17T13:02:12.060Z,98.50
2022-09-17T13:05:13.084Z,98.50
2022-09-17T13:07:48.780Z,98.50
2022-09-17T13:10:40.849Z,98.50
2022-09-17T13:13:34.653Z,98.50
2022-09-17T13:16:05.967Z,98.50
2022-09-17T13:19:15.059Z,98.50
2022-09-17T13:22:01.161Z,98.50
2022-09-17T13:24:31.124Z,98.50
2022-09-17T13:27:01.207Z,98.50
2022-09-17T13:29:48.969Z,98.50
2022-09-17T13:32:33.939Z,98.50
2022-09-17T13:35:09.797Z,98.50
2022-09-17T13:37:41.414Z,98.50
2022-09-17T13:40:22.467Z,98.50
2022-09-17T13:42:55.468Z,98.50
2022-09-17T13:45:24.292Z,98.50
2022-09-17T13:47:58.097Z,98.50
2022-09-17T13:50:27.193Z,96.40
2022-09-17T13:52:56.850Z,95.20
2022-09-17T13:55:37.288Z,93.90
2022-09-17T13:58:13.718Z,93.70
2022-09-17T14:00:49.386Z,95.60
2022-09-17T14:03:31.475Z,92.80
2022-09-17T14:06:18.862Z,92.60
2022-09-17T14:08:45.644Z,90.70
2022-09-17T14:11:26.416Z,93.00
2022-09-17T14:14:05.626Z,92.20
2022-09-17T14:16:52.000Z,93.80
2022-09-17T14:19:25.590Z,94.60
2022-09-17T14:21:56.112Z,96.30
2022-09-17T14:24:44.177Z,95.20
2022-09-17T14:27:31.940Z,96.20
2022-09-17T14:30:10.913Z,96.80
2022-09-17T14:32:53.791Z,96.50
2022-09-17T14:35:39.088Z,97.50
2022-09-17T14:38:10.474Z,97.70
2022-09-17T14:40:44.950Z,94.50
2022-09-17T14:43:22.157Z,95.70
2022-09-17T14:45:52.860Z,96.60
2022-09-17T14:48:26.072Z,97.80
2022-09-17T14:50:52.935Z,98.50
2022-09-17T14:53:21.093Z,98.50
2022-09-17T14:55:50.201Z,98.50
2022-09-17T14:58:35.384Z,98.50
2022-09-17T15:01:02.210Z,98.50
2022-09-17T15:03:28.979Z,98.50
2022-09-17T15:05:55.754Z,98.50
2022-09-17T15:08:30.261Z,97.70
2022-09-17T15:11:00.531Z,97.60
2022-09-17T15:13:40.336Z,98.50
2022-09-17T15:16:27.435Z,98.30
2022-09-17T15:19:06.769Z,98.50
2022-09-17T15:21:45.293Z,98.50
2022-09-17T15:24:20.699Z,97.50
2022-09-17T15:26:51.879Z,97.50
2022-09-17T15:29:22.915Z,98.40
2022-09-17T15:31:49.894Z,98.50
2022-09-17T15:34:16.808Z,98.50
2022-09-17T15:37:07.413Z,98.50
2022-09-17T15:39:42.733Z,98.50
2022-09-17T15:42:22.834Z,98.50
2022-09-17T15:44:50.257Z,98.50
2022-09-17T15:48:01.729Z,98.50
2022-09-17T15:50:34.052Z,98.50
2022-09-17T15:53:09.438Z,98.50
2022-09-17T15:55:44.512Z,98.50
2022-09-17T15:58:40.676Z,98.50
2022-09-17T16:01:17.043Z,98.50
2022-09-17T16:03:43.947Z,98.50
2022-09-17T16:06:19.814Z,98.50
2022-09-17T16:08:47.765Z,98.50
2022-09-17T16:11:15.199Z,98.50
2022-09-17T16:13:42.244Z,98.50
2022-09-17T16:16:16.509Z,98.50
2022-09-17T16:18:43.264Z,98.50
2022-09-17T16:21:14.993Z,98.50
2022-09-17T16:23:42.312Z,98.50
2022-09-17T16:26:41.942Z,98.50
2022-09-17T16:29:16.213Z,98.50
2022-09-17T16:31:44.655Z,98.50
2022-09-17T16:34:11.515Z,98.50
2022-09-17T16:36:38.948Z,98.50
2022-09-17T16:39:05.821Z,98.50
2022-09-17T16:41:32.539Z,98.50
2022-09-17T16:43:59.522Z,98.50
2022-09-17T16:46:26.524Z,98.50
2022-09-17T16:48:53.389Z,98.50
2022-09-17T16:51:20.138Z,98.50
2022-09-17T16:53:47.008Z,98.50
2022-09-17T16:56:15.397Z,98.50
2022-09-17T16:58:42.387Z,98.50
2022-09-17T17:01:11.037Z,98.50
2022-09-17T17:03:38.377Z,98.50
2022-09-17T17:06:05.677Z,98.50
2022-09-17T17:08:33.502Z,98.50
2022-09-17T17:11:00.965Z,98.50
2022-09-17T17:13:27.926Z,98.50
2022-09-17T17:15:55.092Z,98.50
2022-09-17T17:18:22.900Z,98.50
2022-09-17T17:20:49.987Z,98.50
2022-09-17T17:23:17.086Z,98.50
2022-09-17T17:25:43.983Z,98.50
2022-09-17T17:28:10.953Z,98.50
2022-09-17T17:30:38.550Z,98.50
2022-09-17T17:33:05.537Z,98.50
2022-09-17T17:35:32.534Z,98.50
2022-09-17T17:37:59.345Z,98.50
2022-09-17T17:40:26.772Z,98.50
2022-09-17T17:42:54.819Z,98.50
2022-09-17T17:45:22.022Z,98.50
2022-09-17T17:47:49.011Z,98.50
2022-09-17T17:50:15.926Z,98.50
2022-09-17T17:52:47.805Z,98.50
2022-09-17T17:55:15.648Z,98.50
2022-09-17T17:57:42.434Z,98.50
2022-09-17T18:00:11.004Z,98.50
2022-09-17T18:02:38.089Z,98.50
2022-09-17T18:05:05.208Z,98.50
2022-09-17T18:07:32.171Z,98.50
2022-09-17T18:09:58.943Z,98.50
2022-09-17T18:12:27.067Z,98.50
2022-09-17T18:14:53.966Z,98.50
2022-09-17T18:17:20.813Z,98.50
2022-09-17T18:19:47.563Z,98.50
2022-09-17T18:22:14.271Z,98.50
2022-09-17T18:24:40.960Z,98.50
2022-09-17T18:27:07.723Z,98.50
2022-09-17T18:29:34.545Z,98.50
2022-09-17T18:32:01.425Z,98.50
2022-09-17T18:34:28.161Z,98.50
2022-09-17T18:36:54.974Z,98.50
2022-09-17T18:42:09.190Z,98.50
2022-09-17T18:44:36.057Z,98.50
2022-09-17T18:47:03.053Z,98.50
2022-09-17T18:49:29.766Z,98.50
2022-09-17T18:51:56.585Z,98.50
2022-09-17T18:54:23.363Z,98.50
2022-09-17T18:56:50.022Z,98.50
2022-09-17T18:59:16.759Z,98.50
2022-09-17T19:01:43.493Z,98.50
2022-09-17T19:04:11.360Z,98.50
2022-09-17T19:06:38.203Z,98.50
2022-09-17T19:09:05.736Z,98.50
2022-09-17T19:11:33.948Z,98.50
2022-09-17T19:14:01.536Z,98.50
2022-09-17T19:16:28.342Z,98.50
2022-09-17T19:18:55.061Z,98.50
2022-09-17T19:21:21.958Z,98.50
2022-09-17T19:23:50.800Z,98.50
2022-09-17T19:26:20.358Z,98.50
2022-09-17T19:28:47.366Z,98.50
2022-09-17T19:31:16.784Z,98.50
2022-09-17T19:33:44.496Z,98.50
2022-09-17T19:36:14.292Z,98.50
2022-09-17T19:38:41.537Z,98.50
2022-09-17T19:41:14.887Z,98.50
2022-09-17T19:43:42.129Z,98.50
2022-09-17T19:46:14.965Z,98.50
2022-09-17T19:48:56.070Z,98.50
2022-09-17T19:51:25.465Z,98.50
2022-09-17T19:53:53.115Z,98.50
2022-09-17T19:56:22.961Z,98.50
2022-09-17T19:58:50.553Z,98.50
2022-09-17T20:01:18.177Z,98.50
2022-09-17T20:03:46.527Z,98.50
2022-09-17T20:06:15.374Z,98.50
2022-09-17T20:08:53.061Z,98.50
2022-09-17T20:11:21.888Z,98.50
2022-09-17T20:13:48.723Z,98.50
2022-09-17T20:16:21.056Z,98.50
2022-09-17T20:18:48.884Z,98.50
2022-09-17T20:21:25.109Z,98.50
2022-09-17T20:23:52.444Z,98.50
2022-09-17T20:26:19.153Z,98.50
2022-09-17T20:28:47.419Z,98.50
2022-09-17T20:31:23.216Z,98.50
2022-09-17T20:33:55.207Z,98.50
2022-09-17T20:36:24.989Z,98.50
2022-09-17T20:41:39.468Z,98.50
2022-09-17T20:44:07.140Z,98.50
2022-09-17T20:46:34.185Z,98.50
2022-09-17T20:49:01.178Z,98.50
2022-09-17T20:51:29.761Z,98.50
2022-09-17T20:53:57.777Z,98.50
2022-09-17T20:56:27.197Z,98.50
2022-09-17T20:59:25.038Z,98.50
2022-09-17T21:01:53.459Z,98.50
2022-09-17T21:04:21.757Z,98.50
2022-09-17T21:06:52.555Z,98.50
2022-09-17T21:09:19.959Z,98.50
2022-09-17T21:11:48.626Z,98.50
2022-09-17T21:14:17.238Z,98.50
2022-09-17T21:16:44.856Z,98.50
2022-09-17T21:19:13.375Z,98.50
2022-09-17T21:21:40.078Z,98.50
2022-09-17T21:24:07.497Z,98.50
2022-09-17T21:26:34.515Z,98.50
2022-09-17T21:29:05.861Z,98.50
2022-09-17T21:31:34.571Z,98.50
2022-09-17T21:34:03.557Z,98.50
2022-09-17T21:36:33.727Z,98.50
2022-09-17T21:39:02.951Z,98.50
2022-09-17T21:41:30.091Z,98.50
2022-09-17T21:43:57.046Z,98.50
2022-09-17T21:46:26.421Z,98.50
2022-09-17T21:48:56.781Z,98.50
2022-09-17T21:51:25.963Z,98.50
2022-09-17T21:53:54.841Z,98.50
2022-09-17T21:56:22.242Z,98.50
2022-09-17T21:58:54.650Z,98.50
2022-09-17T22:01:24.868Z,98.50
2022-09-17T22:03:51.842Z,98.50
2022-09-17T22:06:21.479Z,98.50
2022-09-17T22:08:49.743Z,98.50
2022-09-17T22:11:19.166Z,98.50
2022-09-17T22:14:10.801Z,98.50
2022-09-17T22:16:41.820Z,98.50
2022-09-17T22:19:09.561Z,98.50
2022-09-17T22:21:42.338Z,98.50
2022-09-17T22:24:10.765Z,98.50
2022-09-17T22:26:40.581Z,98.50
2022-09-17T22:29:11.361Z,98.50
2022-09-17T22:31:38.988Z,98.50
2022-09-17T22:34:10.750Z,98.50
2022-09-17T22:36:37.656Z,98.50
2022-09-17T22:39:05.432Z,98.50
2022-09-17T22:41:35.111Z,98.50
2022-09-17T22:44:13.629Z,98.50
2022-09-17T22:46:40.961Z,98.50
2022-09-17T22:49:09.907Z,98.50
2022-09-17T22:51:37.182Z,98.50
2022-09-17T22:54:04.530Z,98.50
2022-09-17T22:56:31.422Z,98.50
2022-09-17T22:58:59.016Z,98.50
2022-09-17T23:01:31.148Z,98.50
2022-09-17T23:03:59.733Z,98.50
2022-09-17T23:06:28.756Z,98.50
2022-09-17T23:08:55.805Z,98.50
2022-09-17T23:11:28.523Z,98.50
2022-09-17T23:13:57.760Z,98.50
2022-09-17T23:16:25.493Z,98.50
2022-09-17T23:18:52.450Z,98.50
2022-09-17T23:21:20.082Z,98.50
2022-09-17T23:23:50.010Z,98.50
2022-09-17T23:26:20.691Z,98.50
2022-09-17T23:28:48.141Z,98.50
2022-09-17T23:31:45.919Z,98.50
2022-09-17T23:34:12.966Z,98.50
2022-09-17T23:36:40.189Z,98.50
2022-09-17T23:39:09.216Z,98.50
2022-09-17T23:41:39.873Z,98.50
2022-09-17T23:44:14.571Z,98.50
2022-09-17T23:46:42.774Z,98.50
2022-09-17T23:49:12.365Z,98.50
2022-09-17T23:51:39.337Z,98.50
2022-09-17T23:54:07.232Z,98.50
2022-09-17T23:56:34.953Z,98.50
2022-09-17T23:59:02.352Z,98.50
